createdAt,value
2018-09-05T00:00:41.639Z,0.00
2018-09-05T00:01:41.557Z,0.00
2018-09-05T00:02:41.457Z,0.00
2018-09-05T00:03:41.380Z,0.00
2018-09-05T00:04:41.272Z,0.00
2018-09-05T00:05:41.183Z,0.00
2018-09-05T00:06:41.087Z,0.00
2018-09-05T00:07:40.998Z,0.00
2018-09-05T00:08:40.920Z,0.00
2018-09-05T00:09:40.809Z,0.00
2018-09-05T00:10:40.716Z,0.00
2018-09-05T00:11:40.625Z,0.00
2018-09-05T00:12:40.537Z,0.00
2018-09-05T00:13:40.457Z,0.00
2018-09-05T00:14:40.353Z,0.00
2018-09-05T00:15:40.258Z,0.00
2018-09-05T00:16:40.167Z,0.00
2018-09-05T00:17:40.077Z,0.00
2018-09-05T00:18:39.994Z,0.00
2018-09-05T00:19:39.887Z,0.00
2018-09-05T00:20:39.802Z,0.00
2018-09-05T00:21:39.704Z,0.00
2018-09-05T00:22:39.616Z,0.00
2018-09-05T00:23:39.542Z,0.00
2018-09-05T00:24:39.428Z,0.00
2018-09-05T00:25:39.333Z,0.00
2018-09-05T00:26:39.243Z,0.00
2018-09-05T00:27:39.151Z,0.00
2018-09-05T00:28:39.072Z,0.00
2018-09-05T00:29:38.969Z,0.00
2018-09-05T00:30:38.872Z,0.00
2018-09-05T00:31:38.783Z,0.00
2018-09-05T00:32:38.693Z,0.00
2018-09-05T00:33:38.614Z,0.00
2018-09-05T00:34:38.503Z,0.00
2018-09-05T00:35:38.415Z,0.00
2018-09-05T00:36:38.319Z,0.00
2018-09-05T00:37:38.226Z,0.00
2018-09-05T00:38:38.152Z,0.00
2018-09-05T00:39:38.040Z,0.00
2018-09-05T00:40:37.952Z,0.00
2018-09-05T00:41:37.856Z,0.00
2018-09-05T00:42:37.763Z,0.00
2018-09-05T00:43:37.677Z,0.00
2018-09-05T00:44:37.598Z,0.00
2018-09-05T00:45:37.491Z,0.00
2018-09-05T00:46:37.398Z,0.00
2018-09-05T00:47:37.303Z,0.00
2018-09-05T00:48:37.212Z,0.00
2018-09-05T00:49:37.134Z,0.00
2018-09-05T00:50:37.031Z,0.00
2018-09-05T00:51:36.933Z,0.00
2018-09-05T00:52:36.842Z,0.00
2018-09-05T00:53:36.752Z,0.00
2018-09-05T00:54:36.676Z,0.00
2018-09-05T00:55:36.563Z,0.00
2018-09-05T00:56:36.471Z,0.00
2018-09-05T00:57:36.381Z,0.00
2018-09-05T00:58:36.287Z,0.00
2018-09-05T00:59:36.210Z,0.00
2018-09-05T01:00:36.101Z,0.00
2018-09-05T01:01:36.011Z,0.00
2018-09-05T01:02:35.918Z,0.00
2018-09-05T01:03:35.828Z,0.00
2018-09-05T01:04:35.747Z,0.00
2018-09-05T01:05:35.637Z,0.00
2018-09-05T01:06:35.546Z,0.00
2018-09-05T01:07:35.453Z,0.00
2018-09-05T01:08:35.363Z,0.00
2018-09-05T01:09:35.289Z,0.00
2018-09-05T01:10:35.179Z,0.00
2018-09-05T01:11:35.085Z,0.00
2018-09-05T01:12:34.991Z,0.00
2018-09-05T01:13:34.898Z,0.00
2018-09-05T01:14:34.924Z,0.00
2018-09-05T01:15:34.719Z,0.00
2018-09-05T01:16:34.623Z,0.00
2018-09-05T01:17:34.529Z,0.00
2018-09-05T01:18:34.441Z,0.00
2018-09-05T01:19:34.361Z,0.00
2018-09-05T01:20:34.254Z,0.00
2018-09-05T01:21:34.164Z,0.00
2018-09-05T01:22:34.068Z,0.00
2018-09-05T01:23:33.975Z,0.00
2018-09-05T01:24:33.897Z,0.00
2018-09-05T01:25:33.791Z,0.00
2018-09-05T01:26:33.696Z,0.00
2018-09-05T01:27:33.606Z,0.00
2018-09-05T01:28:33.616Z,0.00
2018-09-05T01:29:33.436Z,0.00
2018-09-05T01:30:33.334Z,0.00
2018-09-05T01:31:33.236Z,0.00
2018-09-05T01:32:33.142Z,0.00
2018-09-05T01:33:33.050Z,0.00
2018-09-05T01:34:32.974Z,0.00
2018-09-05T01:35:32.964Z,0.00
2018-09-05T01:36:32.770Z,0.00
2018-09-05T01:37:32.678Z,0.00
2018-09-05T01:38:32.585Z,0.00
2018-09-05T01:39:32.509Z,0.00
2018-09-05T01:40:32.411Z,0.00
2018-09-05T01:41:32.307Z,0.00
2018-09-05T01:42:32.320Z,0.00
2018-09-05T01:43:32.121Z,0.00
2018-09-05T01:44:32.047Z,0.00
2018-09-05T01:45:31.935Z,0.00
2018-09-05T01:46:31.845Z,0.00
2018-09-05T01:47:31.752Z,0.00
2018-09-05T01:48:31.660Z,0.00
2018-09-05T01:49:31.686Z,0.00
2018-09-05T01:50:31.474Z,0.00
2018-09-05T01:51:31.383Z,0.00
2018-09-05T01:52:31.289Z,0.00
2018-09-05T01:53:31.196Z,0.00
2018-09-05T01:54:31.125Z,0.00
2018-09-05T01:55:31.014Z,0.00
2018-09-05T01:56:31.025Z,0.00
2018-09-05T01:57:30.824Z,0.00
2018-09-05T01:58:30.732Z,0.00
2018-09-05T01:59:30.655Z,0.00
2018-09-05T02:00:30.561Z,0.00
2018-09-05T02:01:30.460Z,0.00
2018-09-05T02:02:30.360Z,0.00
2018-09-05T02:03:30.375Z,0.00
2018-09-05T02:04:30.191Z,0.00
2018-09-05T02:05:30.086Z,0.00
2018-09-05T02:06:29.992Z,0.00
2018-09-05T02:07:29.897Z,0.00
2018-09-05T02:08:29.828Z,0.00
2018-09-05T02:09:29.730Z,0.00
2018-09-05T02:10:29.732Z,0.00
2018-09-05T02:11:29.528Z,0.00
2018-09-05T02:12:29.435Z,0.00
2018-09-05T02:13:29.341Z,0.00
2018-09-05T02:14:29.268Z,0.00
2018-09-05T02:15:29.158Z,0.00
2018-09-05T02:16:29.065Z,0.00
2018-09-05T02:17:29.083Z,0.00
2018-09-05T02:18:28.884Z,0.00
2018-09-05T02:19:28.802Z,0.00
2018-09-05T02:20:28.692Z,0.00
2018-09-05T02:21:28.600Z,0.00
2018-09-05T02:22:28.507Z,0.00
2018-09-05T02:23:28.416Z,0.00
2018-09-05T02:24:28.441Z,0.00
2018-09-05T02:25:28.228Z,0.00
2018-09-05T02:26:28.135Z,0.00
2018-09-05T02:27:28.048Z,0.00
2018-09-05T02:28:27.955Z,0.00
2018-09-05T02:29:31.708Z,0.00
2018-09-05T02:30:27.883Z,0.00
2018-09-05T02:31:27.677Z,0.00
2018-09-05T02:32:27.579Z,0.00
2018-09-05T02:33:27.488Z,0.00
2018-09-05T02:34:27.395Z,0.00
2018-09-05T02:35:27.318Z,0.00
2018-09-05T02:36:27.209Z,0.00
2018-09-05T02:37:27.116Z,0.00
2018-09-05T02:38:27.024Z,0.00
2018-09-05T02:39:26.934Z,0.00
2018-09-05T02:40:26.885Z,0.00
2018-09-05T02:41:26.745Z,0.00
2018-09-05T02:42:26.653Z,0.00
2018-09-05T02:43:26.563Z,0.00
2018-09-05T02:44:26.473Z,0.00
2018-09-05T02:45:26.392Z,0.00
2018-09-05T02:46:26.298Z,0.00
2018-09-05T02:47:26.188Z,0.00
2018-09-05T02:48:26.097Z,0.00
2018-09-05T02:49:26.005Z,0.00
2018-09-05T02:50:25.925Z,0.00
2018-09-05T02:51:25.818Z,0.00
2018-09-05T02:52:25.721Z,0.00
2018-09-05T02:53:25.631Z,0.00
2018-09-05T02:54:25.539Z,0.00
2018-09-05T02:55:25.467Z,0.00
2018-09-05T02:56:25.349Z,0.00
2018-09-05T02:57:25.258Z,0.00
2018-09-05T02:58:25.165Z,0.00
2018-09-05T02:59:25.072Z,0.00
2018-09-05T03:00:24.999Z,0.00
2018-09-05T03:01:24.889Z,0.00
2018-09-05T03:02:24.796Z,0.00
2018-09-05T03:03:24.701Z,0.00
2018-09-05T03:04:24.607Z,0.00
2018-09-05T03:05:24.530Z,0.00
2018-09-05T03:06:24.423Z,0.00
2018-09-05T03:07:24.331Z,0.00
2018-09-05T03:08:24.237Z,0.00
2018-09-05T03:09:24.244Z,0.00
2018-09-05T03:10:24.068Z,0.00
2018-09-05T03:11:23.959Z,0.00
2018-09-05T03:12:23.861Z,0.00
2018-09-05T03:13:23.772Z,0.00
2018-09-05T03:14:23.680Z,0.00
2018-09-05T03:15:23.600Z,0.00
2018-09-05T03:16:23.489Z,0.00
2018-09-05T03:17:23.404Z,0.00
2018-09-05T03:18:23.308Z,0.00
2018-09-05T03:19:23.218Z,0.00
2018-09-05T03:20:23.138Z,0.00
2018-09-05T03:21:23.028Z,0.00
2018-09-05T03:22:22.938Z,0.00
2018-09-05T03:23:22.896Z,0.00
2018-09-05T03:24:22.748Z,0.00
2018-09-05T03:25:22.676Z,0.00
2018-09-05T03:26:22.569Z,0.00
2018-09-05T03:27:22.473Z,0.00
2018-09-05T03:28:22.380Z,0.00
2018-09-05T03:29:22.290Z,0.00
2018-09-05T03:30:22.209Z,0.00
2018-09-05T03:31:22.101Z,0.00
2018-09-05T03:32:22.056Z,0.00
2018-09-05T03:33:21.914Z,0.00
2018-09-05T03:34:21.825Z,0.00
2018-09-05T03:35:21.745Z,0.00
2018-09-05T03:36:21.640Z,0.00
2018-09-05T03:37:21.547Z,0.00
2018-09-05T03:38:21.450Z,0.00
2018-09-05T03:39:21.359Z,0.00
2018-09-05T03:40:21.389Z,0.00
2018-09-05T03:41:21.175Z,0.00
2018-09-05T03:42:21.079Z,0.00
2018-09-05T03:43:20.985Z,0.00
2018-09-05T03:44:20.897Z,0.00
2018-09-05T03:45:20.818Z,0.00
2018-09-05T03:46:20.707Z,0.00
2018-09-05T03:47:20.617Z,0.00
2018-09-05T03:48:20.521Z,0.00
2018-09-05T03:49:20.429Z,0.00
2018-09-05T03:50:20.352Z,0.00
2018-09-05T03:51:20.244Z,0.00
2018-09-05T03:52:20.151Z,0.00
2018-09-05T03:53:20.058Z,0.00
2018-09-05T03:54:20.067Z,0.00
2018-09-05T03:55:19.887Z,0.00
2018-09-05T03:56:19.780Z,0.00
2018-09-05T03:57:19.683Z,0.00
2018-09-05T03:58:19.592Z,4.00
2018-09-05T03:59:19.499Z,4.00
2018-09-05T04:00:19.421Z,0.00
2018-09-05T04:01:19.413Z,4.00
2018-09-05T04:02:19.221Z,4.00
2018-09-05T04:03:19.126Z,4.00
2018-09-05T04:04:19.036Z,4.00
2018-09-05T04:05:18.955Z,4.00
2018-09-05T04:06:18.847Z,8.00
2018-09-05T04:07:18.757Z,8.00
2018-09-05T04:08:18.760Z,12.00
2018-09-05T04:09:18.567Z,12.00
2018-09-05T04:10:18.494Z,20.00
2018-09-05T04:11:18.388Z,20.00
2018-09-05T04:12:18.303Z,24.00
2018-09-05T04:13:18.201Z,28.00
2018-09-05T04:14:18.105Z,32.00
2018-09-05T04:15:18.117Z,40.00
2018-09-05T04:16:17.937Z,44.00
2018-09-05T04:17:17.826Z,52.00
2018-09-05T04:18:17.733Z,64.00
2018-09-05T04:19:17.641Z,76.00
2018-09-05T04:20:17.550Z,84.00
2018-09-05T04:21:17.470Z,100.00
2018-09-05T04:22:17.459Z,108.00
2018-09-05T04:23:17.271Z,124.00
2018-09-05T04:24:17.174Z,140.00
2018-09-05T04:25:17.088Z,156.00
2018-09-05T04:26:17.005Z,176.00
2018-09-05T04:27:16.897Z,192.00
2018-09-05T04:28:16.806Z,208.00
2018-09-05T04:29:16.816Z,228.00
2018-09-05T04:30:16.681Z,248.00
2018-09-05T04:31:16.539Z,276.00
2018-09-05T04:32:16.429Z,300.00
2018-09-05T04:33:16.336Z,332.00
2018-09-05T04:34:16.253Z,364.00
2018-09-05T04:35:16.154Z,392.00
2018-09-05T04:36:16.177Z,424.00
2018-09-05T04:37:15.963Z,460.00
2018-09-05T04:38:15.875Z,500.00
2018-09-05T04:39:15.781Z,544.00
2018-09-05T04:40:15.687Z,580.00
2018-09-05T04:41:15.612Z,624.00
2018-09-05T04:42:15.501Z,676.00
2018-09-05T04:43:15.511Z,724.00
2018-09-05T04:44:15.313Z,780.00
2018-09-05T04:45:15.302Z,840.00
2018-09-05T04:46:15.143Z,916.00
2018-09-05T04:47:15.037Z,992.00
2018-09-05T04:48:14.943Z,1072.00
2018-09-05T04:49:14.849Z,1164.00
2018-09-05T04:50:14.861Z,1264.00
2018-09-05T04:51:14.680Z,1364.00
2018-09-05T04:52:14.571Z,1468.00
2018-09-05T04:53:14.478Z,1556.00
2018-09-05T04:54:14.384Z,1644.00
2018-09-05T04:55:14.292Z,1728.00
2018-09-05T04:56:14.217Z,1816.00
2018-09-05T04:57:14.216Z,1896.00
2018-09-05T04:58:14.034Z,1960.00
2018-09-05T04:59:13.922Z,2032.00
2018-09-05T05:00:13.832Z,2120.00
2018-09-05T05:01:13.751Z,2244.00
2018-09-05T05:02:13.643Z,2368.00
2018-09-05T05:03:13.553Z,2492.00
2018-09-05T05:04:13.572Z,2560.00
2018-09-05T05:05:13.365Z,2672.00
2018-09-05T05:06:13.293Z,2800.00
2018-09-05T05:07:13.183Z,2856.00
2018-09-05T05:08:13.086Z,2912.00
2018-09-05T05:09:12.997Z,2980.00
2018-09-05T05:10:12.905Z,3084.00
2018-09-05T05:11:12.828Z,3212.00
2018-09-05T05:12:12.720Z,3352.00
2018-09-05T05:13:12.624Z,3440.00
2018-09-05T05:14:12.536Z,3548.00
2018-09-05T05:15:12.442Z,3664.00
2018-09-05T05:16:12.369Z,3764.00
2018-09-05T05:17:12.255Z,3840.00
2018-09-05T05:18:12.161Z,3948.00
2018-09-05T05:19:12.072Z,4052.00
2018-09-05T05:20:11.976Z,4156.00
2018-09-05T05:21:11.902Z,4296.00
2018-09-05T05:22:11.794Z,4420.00
2018-09-05T05:23:11.703Z,4560.00
2018-09-05T05:24:11.621Z,4564.00
2018-09-05T05:25:11.520Z,4588.00
2018-09-05T05:26:11.440Z,4628.00
2018-09-05T05:27:11.332Z,4664.00
2018-09-05T05:28:11.240Z,4832.00
2018-09-05T05:29:11.147Z,4656.00
2018-09-05T05:30:11.053Z,4716.00
2018-09-05T05:31:10.981Z,4980.00
2018-09-05T05:32:10.876Z,5228.00
2018-09-05T05:33:10.778Z,5412.00
2018-09-05T05:34:10.689Z,5648.00
2018-09-05T05:35:10.594Z,5824.00
2018-09-05T05:36:10.516Z,5836.00
2018-09-05T05:37:10.409Z,5828.00
2018-09-05T05:38:10.323Z,5840.00
2018-09-05T05:39:10.224Z,5868.00
2018-09-05T05:40:10.168Z,5932.00
2018-09-05T05:41:10.059Z,6072.00
2018-09-05T05:42:09.952Z,6736.00
2018-09-05T05:43:09.861Z,7572.00
2018-09-05T05:44:09.766Z,6952.00
2018-09-05T05:45:09.677Z,6736.00
2018-09-05T05:46:09.601Z,7132.00
2018-09-05T05:47:09.497Z,6556.00
2018-09-05T05:48:09.402Z,6868.00
2018-09-05T05:49:09.309Z,7088.00
2018-09-05T05:50:09.220Z,7524.00
2018-09-05T05:51:09.153Z,7608.00
2018-09-05T05:52:09.038Z,7396.00
2018-09-05T05:53:08.945Z,6832.00
2018-09-05T05:54:08.854Z,6252.00
2018-09-05T05:55:08.832Z,5964.00
2018-09-05T05:56:08.699Z,5452.00
2018-09-05T05:57:08.584Z,4760.00
2018-09-05T05:58:08.490Z,4560.00
2018-09-05T05:59:08.406Z,4360.00
2018-09-05T06:00:08.309Z,4268.00
2018-09-05T06:01:08.257Z,4264.00
2018-09-05T06:02:08.151Z,4320.00
2018-09-05T06:03:08.039Z,4420.00
2018-09-05T06:04:07.946Z,4472.00
2018-09-05T06:05:07.856Z,4500.00
2018-09-05T06:06:07.838Z,4564.00
2018-09-05T06:07:07.694Z,4616.00
2018-09-05T06:08:07.590Z,4556.00
2018-09-05T06:09:07.498Z,4272.00
2018-09-05T06:10:07.407Z,4188.00
2018-09-05T06:11:07.315Z,4220.00
2018-09-05T06:12:07.252Z,4280.00
2018-09-05T06:13:07.135Z,4300.00
2018-09-05T06:14:07.042Z,4316.00
2018-09-05T06:15:06.955Z,4356.00
2018-09-05T06:16:06.867Z,4268.00
2018-09-05T06:17:06.793Z,4336.00
2018-09-05T06:18:06.683Z,4468.00
2018-09-05T06:19:06.591Z,4580.00
2018-09-05T06:20:06.501Z,4780.00
2018-09-05T06:21:06.445Z,5264.00
2018-09-05T06:22:06.338Z,5980.00
2018-09-05T06:23:06.241Z,7848.00
2018-09-05T06:24:06.174Z,9336.00
2018-09-05T06:25:06.045Z,11140.00
2018-09-05T06:26:06.749Z,11780.00
2018-09-05T06:27:05.883Z,13192.00
2018-09-05T06:28:05.786Z,18656.00
2018-09-05T06:29:05.685Z,20000.00
2018-09-05T06:30:05.600Z,21248.00
2018-09-05T06:31:05.555Z,22496.00
2018-09-05T06:32:05.435Z,21632.00
2018-09-05T06:33:05.329Z,22880.00
2018-09-05T06:34:05.289Z,23968.00
2018-09-05T06:35:05.151Z,25056.00
2018-09-05T06:36:05.059Z,25856.00
2018-09-05T06:37:04.984Z,26784.00
2018-09-05T06:38:04.880Z,27264.00
2018-09-05T06:39:04.865Z,26368.00
2018-09-05T06:40:04.703Z,26592.00
2018-09-05T06:41:04.614Z,28352.00
2018-09-05T06:42:04.645Z,27520.00
2018-09-05T06:43:04.438Z,25248.00
2018-09-05T06:44:04.349Z,26144.00
2018-09-05T06:45:04.300Z,27264.00
2018-09-05T06:46:04.174Z,29184.00
2018-09-05T06:47:04.100Z,27936.00
2018-09-05T06:48:04.016Z,30752.00
2018-09-05T06:49:04.013Z,32384.00
2018-09-05T06:50:03.823Z,31648.00
2018-09-05T06:51:03.739Z,33056.00
2018-09-05T06:52:03.665Z,33472.00
2018-09-05T06:53:03.564Z,32896.00
2018-09-05T06:54:03.475Z,35136.00
2018-09-05T06:55:03.390Z,38976.00
2018-09-05T06:56:03.405Z,38368.00
2018-09-05T06:57:03.236Z,37152.00
2018-09-05T06:58:03.138Z,37920.00
2018-09-05T06:59:03.048Z,36928.00
2018-09-05T07:00:02.970Z,37280.00
2018-09-05T07:01:02.875Z,39232.00
2018-09-05T07:02:02.809Z,39520.00
2018-09-05T07:03:02.803Z,39232.00
2018-09-05T07:04:02.675Z,37312.00
2018-09-05T07:05:02.536Z,34880.00
2018-09-05T07:06:02.450Z,32896.00
2018-09-05T07:07:02.425Z,31456.00
2018-09-05T07:08:02.280Z,30880.00
2018-09-05T07:09:02.198Z,29696.00
2018-09-05T07:10:02.244Z,25536.00
2018-09-05T07:11:02.031Z,28288.00
2018-09-05T07:12:01.964Z,27072.00
2018-09-05T07:13:01.864Z,27968.00
2018-09-05T07:14:01.828Z,25920.00
2018-09-05T07:15:01.695Z,25952.00
2018-09-05T07:16:01.613Z,24480.00
2018-09-05T07:17:01.650Z,26176.00
2018-09-05T07:18:01.447Z,21344.00
2018-09-05T07:19:01.362Z,22688.00
2018-09-05T07:20:01.286Z,21536.00
2018-09-05T07:21:05.689Z,26784.00
2018-09-05T07:22:01.165Z,26464.00
2018-09-05T07:23:01.030Z,26368.00
2018-09-05T07:24:01.048Z,26624.00
2018-09-05T07:25:00.911Z,26912.00
2018-09-05T07:26:00.783Z,27168.00
2018-09-05T07:27:00.719Z,27296.00
2018-09-05T07:28:00.619Z,27552.00
2018-09-05T07:29:00.538Z,26688.00
2018-09-05T07:30:00.454Z,26912.00
2018-09-05T07:31:00.555Z,26560.00
2018-09-05T07:32:00.305Z,26848.00
2018-09-05T07:33:00.208Z,26464.00
2018-09-05T07:34:00.130Z,27040.00
2018-09-05T07:35:00.043Z,26464.00
2018-09-05T07:35:59.961Z,28320.00
2018-09-05T07:36:59.898Z,29184.00
2018-09-05T07:37:59.800Z,29248.00
2018-09-05T07:38:59.718Z,28288.00
2018-09-05T07:39:59.636Z,27872.00
2018-09-05T07:40:59.555Z,28352.00
2018-09-05T07:41:59.491Z,30016.00
2018-09-05T07:42:59.391Z,30624.00
2018-09-05T07:43:59.309Z,29056.00
2018-09-05T07:44:59.347Z,28640.00
2018-09-05T07:45:59.148Z,28832.00
2018-09-05T07:46:59.071Z,30624.00
2018-09-05T07:47:59.001Z,31232.00
2018-09-05T07:48:58.909Z,30048.00
2018-09-05T07:49:58.827Z,28512.00
2018-09-05T07:50:58.754Z,28480.00
2018-09-05T07:51:58.667Z,31264.00
2018-09-05T07:52:58.599Z,31168.00
2018-09-05T07:53:58.501Z,31680.00
2018-09-05T07:54:58.422Z,31872.00
2018-09-05T07:55:58.341Z,33120.00
2018-09-05T07:56:58.263Z,32800.00
2018-09-05T07:57:58.196Z,34464.00
2018-09-05T07:58:58.101Z,34912.00
2018-09-05T07:59:58.019Z,33888.00
2018-09-05T08:00:57.939Z,35968.00
2018-09-05T08:01:57.859Z,19392.00
2018-09-05T08:02:57.847Z,14844.00
2018-09-05T08:03:57.698Z,12848.00
2018-09-05T08:04:57.619Z,12244.00
2018-09-05T08:05:57.537Z,11808.00
2018-09-05T08:06:57.457Z,11616.00
2018-09-05T08:07:57.391Z,13692.00
2018-09-05T08:08:57.293Z,25664.00
2018-09-05T08:09:57.213Z,13352.00
2018-09-05T08:10:57.133Z,14892.00
2018-09-05T08:11:57.050Z,15520.00
2018-09-05T08:12:56.985Z,14532.00
2018-09-05T08:13:56.888Z,13592.00
2018-09-05T08:14:56.807Z,13284.00
2018-09-05T08:15:56.728Z,12664.00
2018-09-05T08:16:56.643Z,11980.00
2018-09-05T08:17:56.636Z,10920.00
2018-09-05T08:18:56.480Z,9900.00
2018-09-05T08:19:56.399Z,9728.00
2018-09-05T08:20:56.315Z,9972.00
2018-09-05T08:21:56.233Z,10432.00
2018-09-05T08:22:56.171Z,10752.00
2018-09-05T08:23:56.065Z,11144.00
2018-09-05T08:24:55.984Z,11144.00
2018-09-05T08:25:55.904Z,11348.00
2018-09-05T08:26:55.819Z,11332.00
2018-09-05T08:27:55.752Z,12080.00
2018-09-05T08:28:55.672Z,12376.00
2018-09-05T08:29:55.576Z,12308.00
2018-09-05T08:30:55.488Z,11740.00
2018-09-05T08:31:55.409Z,11408.00
2018-09-05T08:32:55.335Z,11228.00
2018-09-05T08:33:55.239Z,11300.00
2018-09-05T08:34:55.236Z,11672.00
2018-09-05T08:35:55.504Z,11524.00
2018-09-05T08:36:55.178Z,11400.00
2018-09-05T08:37:54.982Z,10220.00
2018-09-05T08:38:54.873Z,9708.00
2018-09-05T08:39:54.732Z,9232.00
2018-09-05T08:40:54.650Z,9120.00
2018-09-05T08:41:54.623Z,9388.00
2018-09-05T08:42:54.533Z,10416.00
2018-09-05T08:43:54.574Z,10548.00
2018-09-05T08:44:54.441Z,10696.00
2018-09-05T08:45:54.315Z,10520.00
2018-09-05T08:46:54.193Z,10792.00
2018-09-05T08:47:54.188Z,10984.00
2018-09-05T08:48:53.976Z,11184.00
2018-09-05T08:49:53.893Z,11964.00
2018-09-05T08:50:53.848Z,12188.00
2018-09-05T08:51:53.724Z,13024.00
2018-09-05T08:52:53.681Z,13304.00
2018-09-05T08:53:53.551Z,15580.00
2018-09-05T08:54:53.477Z,48416.00
2018-09-05T08:55:53.383Z,50688.00
2018-09-05T08:56:53.300Z,51328.00
2018-09-05T08:57:53.231Z,55744.00
2018-09-05T08:58:53.165Z,35360.00
2018-09-05T08:59:53.050Z,59712.00
2018-09-05T09:00:52.959Z,46848.00
2018-09-05T09:01:52.879Z,21312.00
2018-09-05T09:02:52.816Z,16644.00
2018-09-05T09:03:52.768Z,15412.00
2018-09-05T09:04:52.646Z,14872.00
2018-09-05T09:05:52.541Z,15312.00
2018-09-05T09:06:52.456Z,15304.00
2018-09-05T09:07:52.392Z,15412.00
2018-09-05T09:08:52.289Z,17188.00
2018-09-05T09:09:52.204Z,17448.00
2018-09-05T09:10:52.124Z,41920.00
2018-09-05T09:11:52.040Z,22848.00
2018-09-05T09:12:51.957Z,90848.00
2018-09-05T09:13:51.889Z,83104.00
2018-09-05T09:14:51.900Z,66432.00
2018-09-05T09:15:51.704Z,24224.00
2018-09-05T09:16:51.623Z,33024.00
2018-09-05T09:17:51.543Z,22304.00
2018-09-05T09:18:51.470Z,24992.00
2018-09-05T09:19:51.369Z,18528.00
2018-09-05T09:20:51.291Z,17568.00
2018-09-05T09:21:51.204Z,16528.00
2018-09-05T09:22:51.125Z,17080.00
2018-09-05T09:23:51.056Z,17632.00
2018-09-05T09:24:50.954Z,17352.00
2018-09-05T09:25:50.874Z,18304.00
2018-09-05T09:26:50.787Z,17224.00
2018-09-05T09:27:50.707Z,14732.00
2018-09-05T09:28:50.741Z,13792.00
2018-09-05T09:29:50.539Z,14600.00
2018-09-05T09:30:50.461Z,14868.00
2018-09-05T09:31:50.372Z,16148.00
2018-09-05T09:32:50.290Z,17856.00
2018-09-05T09:33:50.222Z,19552.00
2018-09-05T09:34:50.127Z,20320.00
2018-09-05T09:35:50.142Z,40320.00
2018-09-05T09:36:49.989Z,66112.00
2018-09-05T09:37:49.876Z,57088.00
2018-09-05T09:38:49.809Z,39904.00
2018-09-05T09:39:49.705Z,51040.00
2018-09-05T09:40:49.620Z,59520.00
2018-09-05T09:41:49.542Z,61984.00
2018-09-05T09:42:49.570Z,63328.00
2018-09-05T09:43:49.391Z,67232.00
2018-09-05T09:44:49.290Z,67264.00
2018-09-05T09:45:49.211Z,69664.00
2018-09-05T09:46:49.126Z,75680.00
2018-09-05T09:47:49.044Z,76448.00
2018-09-05T09:48:48.980Z,75040.00
2018-09-05T09:49:48.996Z,74112.00
2018-09-05T09:50:48.800Z,63488.00
2018-09-05T09:51:48.714Z,62208.00
2018-09-05T09:52:48.634Z,34464.00
2018-09-05T09:53:48.572Z,28672.00
2018-09-05T09:54:48.474Z,71936.00
2018-09-05T09:55:48.390Z,70496.00
2018-09-05T09:56:48.410Z,71680.00
2018-09-05T09:57:48.232Z,72576.00
2018-09-05T09:58:48.169Z,71168.00
2018-09-05T09:59:48.070Z,68608.00
2018-09-05T10:00:47.993Z,65536.00
2018-09-05T10:01:47.911Z,50688.00
2018-09-05T10:02:47.833Z,61024.00
2018-09-05T10:03:47.968Z,50464.00
2018-09-05T10:04:47.704Z,26752.00
2018-09-05T10:05:47.591Z,20576.00
2018-09-05T10:06:47.571Z,18880.00
2018-09-05T10:07:47.440Z,17252.00
2018-09-05T10:08:47.369Z,16368.00
2018-09-05T10:09:47.308Z,16060.00
2018-09-05T10:10:47.306Z,15808.00
2018-09-05T10:11:47.116Z,15128.00
2018-09-05T10:12:47.053Z,14352.00
2018-09-05T10:13:46.974Z,13004.00
2018-09-05T10:14:46.882Z,11940.00
2018-09-05T10:15:46.799Z,11464.00
2018-09-05T10:16:46.716Z,11120.00
2018-09-05T10:17:46.741Z,11264.00
2018-09-05T10:18:46.572Z,11676.00
2018-09-05T10:19:46.478Z,11148.00
2018-09-05T10:20:46.400Z,10512.00
2018-09-05T10:21:46.316Z,10200.00
2018-09-05T10:22:46.233Z,9988.00
2018-09-05T10:23:46.169Z,10216.00
2018-09-05T10:24:46.181Z,10660.00
2018-09-05T10:25:45.986Z,11356.00
2018-09-05T10:26:45.910Z,12248.00
2018-09-05T10:27:45.822Z,12844.00
2018-09-05T10:28:45.761Z,12780.00
2018-09-05T10:29:45.658Z,12488.00
2018-09-05T10:30:45.580Z,12024.00
2018-09-05T10:31:45.688Z,11772.00
2018-09-05T10:32:45.412Z,12192.00
2018-09-05T10:33:45.348Z,23328.00
2018-09-05T10:34:45.250Z,14228.00
2018-09-05T10:35:45.164Z,13776.00
2018-09-05T10:36:45.080Z,13608.00
2018-09-05T10:37:44.998Z,13776.00
2018-09-05T10:38:44.929Z,13888.00
2018-09-05T10:39:44.832Z,14632.00
2018-09-05T10:40:44.747Z,14876.00
2018-09-05T10:41:44.664Z,13636.00
2018-09-05T10:42:44.582Z,13884.00
2018-09-05T10:43:44.516Z,14180.00
2018-09-05T10:44:44.413Z,15284.00
2018-09-05T10:45:44.337Z,41088.00
2018-09-05T10:46:44.248Z,15932.00
2018-09-05T10:47:44.162Z,16828.00
2018-09-05T10:48:44.096Z,15764.00
2018-09-05T10:49:43.997Z,15508.00
2018-09-05T10:50:43.914Z,14720.00
2018-09-05T10:51:43.850Z,14204.00
2018-09-05T10:52:43.747Z,14032.00
2018-09-05T10:53:43.678Z,14352.00
2018-09-05T10:54:43.581Z,14664.00
2018-09-05T10:55:43.494Z,14528.00
2018-09-05T10:56:43.409Z,14572.00
2018-09-05T10:57:43.327Z,14868.00
2018-09-05T10:58:43.249Z,15160.00
2018-09-05T10:59:43.180Z,15184.00
2018-09-05T11:00:43.089Z,15340.00
2018-09-05T11:01:42.992Z,15216.00
2018-09-05T11:02:42.909Z,15204.00
2018-09-05T11:03:42.828Z,15332.00
2018-09-05T11:04:42.760Z,15400.00
2018-09-05T11:05:42.657Z,14864.00
2018-09-05T11:06:42.572Z,14476.00
2018-09-05T11:07:42.490Z,14752.00
2018-09-05T11:08:42.407Z,15404.00
2018-09-05T11:09:42.342Z,16084.00
2018-09-05T11:10:42.265Z,16452.00
2018-09-05T11:11:42.152Z,16804.00
2018-09-05T11:12:42.068Z,17624.00
2018-09-05T11:13:41.988Z,18656.00
2018-09-05T11:14:41.915Z,19360.00
2018-09-05T11:15:41.814Z,19584.00
2018-09-05T11:16:41.730Z,19648.00
2018-09-05T11:17:41.651Z,19200.00
2018-09-05T11:18:41.566Z,18372.00
2018-09-05T11:19:41.495Z,17848.00
2018-09-05T11:20:41.393Z,17172.00
2018-09-05T11:21:41.312Z,16636.00
2018-09-05T11:22:41.228Z,16188.00
2018-09-05T11:23:41.143Z,16192.00
2018-09-05T11:24:41.072Z,16236.00
2018-09-05T11:25:40.977Z,16132.00
2018-09-05T11:26:40.894Z,16316.00
2018-09-05T11:27:40.851Z,16944.00
2018-09-05T11:28:40.725Z,20064.00
2018-09-05T11:29:40.657Z,16116.00
2018-09-05T11:30:40.559Z,16996.00
2018-09-05T11:31:40.472Z,16484.00
2018-09-05T11:32:40.382Z,16976.00
2018-09-05T11:33:40.303Z,72480.00
2018-09-05T11:34:40.232Z,18532.00
2018-09-05T11:35:40.139Z,28128.00
2018-09-05T11:36:40.047Z,72032.00
2018-09-05T11:37:39.966Z,76416.00
2018-09-05T11:38:39.879Z,75776.00
2018-09-05T11:39:39.811Z,74528.00
2018-09-05T11:40:39.713Z,74880.00
2018-09-05T11:41:39.627Z,73696.00
2018-09-05T11:42:39.546Z,72480.00
2018-09-05T11:43:39.462Z,76992.00
2018-09-05T11:44:39.397Z,77088.00
2018-09-05T11:45:39.295Z,76320.00
2018-09-05T11:46:39.212Z,73408.00
2018-09-05T11:47:39.131Z,69888.00
2018-09-05T11:48:39.060Z,71328.00
2018-09-05T11:49:38.991Z,72256.00
2018-09-05T11:50:38.892Z,72384.00
2018-09-05T11:51:38.808Z,69664.00
2018-09-05T11:52:38.724Z,70464.00
2018-09-05T11:53:38.647Z,70848.00
2018-09-05T11:54:38.675Z,70272.00
2018-09-05T11:55:38.485Z,71552.00
2018-09-05T11:56:38.409Z,69824.00
2018-09-05T11:57:38.327Z,66944.00
2018-09-05T11:58:38.249Z,63872.00
2018-09-05T11:59:38.184Z,62688.00
2018-09-05T12:00:38.092Z,60992.00
2018-09-05T12:01:38.107Z,57792.00
2018-09-05T12:02:37.928Z,42880.00
2018-09-05T12:03:37.849Z,39808.00
2018-09-05T12:04:37.794Z,48896.00
2018-09-05T12:05:37.710Z,33504.00
2018-09-05T12:06:37.612Z,26432.00
2018-09-05T12:07:37.535Z,27808.00
2018-09-05T12:08:37.455Z,27584.00
2018-09-05T12:09:37.393Z,26432.00
2018-09-05T12:10:37.300Z,25920.00
2018-09-05T12:11:37.223Z,27840.00
2018-09-05T12:12:37.146Z,57280.00
2018-09-05T12:13:37.062Z,61472.00
2018-09-05T12:14:36.998Z,64704.00
2018-09-05T12:15:36.901Z,64352.00
2018-09-05T12:16:36.825Z,66880.00
2018-09-05T12:17:36.744Z,65888.00
2018-09-05T12:18:36.669Z,67808.00